Startpagina
METAR-TAF:

METAR-TAF

Vliegvelden :

Juanjuí, Peru

breedte: 07-10-10S, lengte: 076-43-45W, hoogte: 350 m

Actueel weer

Dit bericht is 28 minuten geleden gemaakt, om 19:00 UTC
Weinig wind
Temperatuur 31°C
Vochtigheid 59%
Druk 1022 hPa
Zicht 10 km of meer
geen wolken onder 1500 m en geen cumulonimbus

METAR: SPJI 191900Z 00000KT CAVOK 31/22 Q1022 RMK PP000

Tijdstip: 14:28 (19:28 UTC)

Verwachting

Dit bericht is 2 uur en het 28 minuten geleden gemaakt, om 17:00 UTC
Verwachting geldig van 19 om 18 UTC tot 20 om 18 UTC
Wind kt uit het noorden
Zicht 10 km of meer
Weinig wolken op 2000 ft
Tijdelijke
van 20 om 13 UTC tot 20 om 16 UTC
Zicht: 2000 m
Gebroken wolken op 1500 ft
nevel

TAF: SPJI 191700Z 1918/2018 00000KT 9999 FEW020 TX31/1920Z TN21/2011Z TEMPO 2013/2016 2000 BR BKN015

Waarnemingen en weersverwachtingen van meer dan 4000 vliegvelden (METAR en TAF).

De beschikbare stations zijn de gele en rode punten op de kaart.

Ga met uw muis naar het station om de naam te zien.

Klik dan om waarnemingen en weersverwachtingen te zien.

kaart wijzigen: klik op de groene knoppen met een zwart kruis om in te zoomen, op de groene knop met een streepje om uit te zoomen of op de groene pijlen voor aangrenzende kaarten.


METAR-TAF: